| time (UTC) | temp F | wind direction | speed MPH | gust MPH | rain 1hr in | rain 24hr in | rain mn in | humidity % | barometer mb |
| 20260505172929 | 55 | 324 | 3.0 | 6.0 | 0.00 | 0.00 | 0.00 | 39 | 1039.1 |
| 20260505172428 | 55 | 225 | 1.0 | 7.0 | 0.00 | 0.00 | 0.00 | 45 | 1039.1 |
| 20260505171926 | 54 | 254 | 4.0 | 9.0 | 0.00 | 0.00 | 0.00 | 41 | 1038.9 |
| 20260505171424 | 55 | 344 | 3.0 | 6.0 | 0.00 | 0.00 | 0.00 | 41 | 1039.2 |
| 20260505170920 | 54 | 303 | 1.0 | 6.0 | 0.00 | 0.00 | 0.00 | 41 | 1039.3 |
| 20260505170417 | 54 | 301 | 4.0 | 7.0 | 0.00 | 0.00 | 0.00 | 40 | 1039.3 |
| 20260505165912 | 55 | 292 | 4.0 | 8.0 | 0.00 | 0.00 | 0.00 | 40 | 1039.1 |
| 20260505165409 | 55 | 307 | 2.0 | 6.0 | 0.00 | 0.00 | 0.00 | 41 | 1039.2 |
| 20260505164904 | 54 | 281 | 3.0 | 7.0 | 0.00 | 0.00 | 0.00 | 40 | 1039.3 |
| 20260505164401 | 54 | 282 | 1.0 | 7.0 | 0.00 | 0.00 | 0.00 | 39 | 1039.2 |
| 20260505163859 | 54 | 279 | 3.0 | 5.0 | 0.00 | 0.00 | 0.00 | 42 | 1039.0 |
| 20260505163358 | 53 | 285 | 2.0 | 7.0 | 0.00 | 0.00 | 0.00 | 41 | 1039.0 |
| 20260505162856 | 53 | 20 | 4.0 | 8.0 | 0.00 | 0.00 | 0.00 | 39 | 1039.1 |
| 20260505162351 | 54 | 331 | 3.0 | 6.0 | 0.00 | 0.00 | 0.00 | 42 | 1038.9 |
| 20260505161849 | 54 | 324 | 4.0 | 8.0 | 0.00 | 0.00 | 0.00 | 37 | 1039.0 |
| 20260505161345 | 54 | 265 | 5.0 | 11.0 | 0.00 | 0.00 | 0.00 | 38 | 1038.9 |
| 20260505160843 | 54 | 298 | 4.0 | 6.0 | 0.00 | 0.00 | 0.00 | 39 | 1039.2 |
| 20260505160341 | 53 | 11 | 2.0 | 5.0 | 0.00 | 0.00 | 0.00 | 38 | 1038.8 |
| 20260505153320 | 53 | 112 | 3.0 | 6.0 | 0.00 | 0.00 | 0.00 | 37 | 1038.9 |
| 20260505152816 | 52 | 98 | 3.0 | 7.0 | 0.00 | 0.00 | 0.00 | 36 | 1038.8 |
| 20260505152313 | 52 | 137 | 2.0 | 7.0 | 0.00 | 0.00 | 0.00 | 36 | 1038.8 |
| 20260505151808 | 52 | 291 | 5.0 | 7.0 | 0.00 | 0.00 | 0.00 | 37 | 1038.8 |
| 20260505151305 | 52 | 308 | 3.0 | 5.0 | 0.00 | 0.00 | 0.00 | 35 | 1038.7 |
| 20260505150802 | 52 | 216 | 2.0 | 10.0 | 0.00 | 0.00 | 0.00 | 34 | 1038.8 |
| 20260505150259 | 52 | 47 | 2.0 | 5.0 | 0.00 | 0.00 | 0.00 | 35 | 1038.6 |
| 20260505140223 | 48 | 335 | 2.0 | 3.0 | 0.00 | 0.00 | 0.00 | 48 | 1039.2 |
| 20260505130147 | 47 | 330 | 2.0 | 7.0 | 0.00 | 0.00 | 0.00 | 57 | 1039.2 |
| 20260505124637 | 44 | 235 | 3.0 | 5.0 | 0.00 | 0.00 | 0.00 | 64 | 1039.2 |
| 20260505124134 | 44 | 128 | 2.0 | 2.0 | 0.00 | 0.00 | 0.00 | 67 | 1039.4 |
| 20260505123630 | 43 | 7 | 1.0 | 3.0 | 0.00 | 0.00 | 0.00 | 68 | 1039.3 |
| 20260505123126 | 43 | 26 | 0.0 | 3.0 | 0.00 | 0.00 | 0.00 | 72 | 1039.1 |
| 20260505122623 | 42 | 355 | 1.0 | 1.0 | 0.00 | 0.00 | 0.00 | 73 | 1039.2 |
| 20260505122121 | 41 | 70 | 1.0 | 2.0 | 0.00 | 0.00 | 0.00 | 79 | 1039.3 |
| 20260505121617 | 41 | 90 | 1.0 | 2.0 | 0.00 | 0.00 | 0.00 | 79 | 1039.1 |
| 20260505121114 | 41 | 55 | 1.0 | 2.0 | 0.00 | 0.00 | 0.00 | 80 | 1039.0 |
| 20260505120610 | 41 | 53 | 1.0 | 2.0 | 0.00 | 0.00 | 0.00 | 79 | 1039.0 |
| 20260505120106 | 41 | 58 | 1.0 | 2.0 | 0.00 | 0.00 | 0.00 | 77 | 1038.9 |
| 20260505115600 | 39 | 68 | 2.0 | 2.0 | 0.00 | 0.00 | 0.00 | 78 | 1039.0 |
| 20260505115058 | 39 | 54 | 1.0 | 2.0 | 0.00 | 0.00 | 0.00 | 82 | 1038.8 |
| 20260505114555 | 39 | 73 | 2.0 | 2.0 | 0.00 | 0.00 | 0.00 | 81 | 1038.7 |
| 20260505114051 | 39 | 52 | 1.0 | 1.0 | 0.00 | 0.00 | 0.00 | 83 | 1038.4 |
| 20260505113548 | 39 | 25 | 0.0 | 1.0 | 0.00 | 0.00 | 0.00 | 79 | 1038.1 |
| 20260505113044 | 39 | 24 | 0.0 | 1.0 | 0.00 | 0.00 | 0.00 | 79 | 1037.7 |
| 20260505112540 | 39 | 24 | 0.0 | 0.0 | 0.00 | 0.00 | 0.00 | 75 | 1037.6 |
| 20260505112038 | 39 | 24 | 0.0 | 0.0 | 0.00 | 0.00 | 0.00 | 75 | 1037.2 |
| 20260505111532 | 39 | 24 | 0.0 | 0.0 | 0.00 | 0.00 | 0.00 | 75 | 1037.2 |
| 20260505111029 | 39 | 24 | 0.0 | 0.0 | 0.00 | 0.00 | 0.00 | 73 | 1036.9 |
| 20260505110525 | 39 | 24 | 0.0 | 0.0 | 0.00 | 0.00 | 0.00 | 72 | 1036.9 |
| 20260505101958 | 40 | 6 | 0.0 | 0.0 | 0.00 | 0.00 | 0.00 | 67 | 1037.3 |
| 20260505101455 | 41 | 6 | 0.0 | 0.0 | 0.00 | 0.00 | 0.00 | 68 | 1037.4 |
| 20260505100952 | 41 | 6 | 0.0 | 0.0 | 0.00 | 0.00 | 0.00 | 67 | 1037.4 |
| 20260505100449 | 41 | 6 | 0.0 | 0.0 | 0.00 | 0.00 | 0.00 | 67 | 1036.9 |
| 20260505095945 | 42 | 6 | 0.0 | 0.0 | 0.00 | 0.00 | 0.00 | 67 | 1037.2 |
| 20260505095442 | 43 | 6 | 0.0 | 0.0 | 0.00 | 0.00 | 0.00 | 62 | 1037.1 |
| 20260505094938 | 43 | 6 | 0.0 | 0.0 | 0.00 | 0.00 | 0.00 | 60 | 1037.1 |
| 20260505094435 | 44 | 5 | 0.0 | 1.0 | 0.00 | 0.00 | 0.00 | 59 | 1037.1 |
| 20260505093931 | 44 | 6 | 0.0 | 0.0 | 0.00 | 0.00 | 0.00 | 59 | 1036.8 |
| 20260505093428 | 44 | 11 | 0.0 | 1.0 | 0.00 | 0.00 | 0.00 | 58 | 1036.8 |
| 20260505092925 | 44 | 6 | 0.0 | 1.0 | 0.00 | 0.00 | 0.00 | 58 | 1036.8 |
| 20260505092423 | 45 | 13 | 0.0 | 0.0 | 0.00 | 0.00 | 0.00 | 57 | 1036.5 |
| 20260505091920 | 45 | 8 | 0.0 | 2.0 | 0.00 | 0.00 | 0.00 | 56 | 1036.8 |
| 20260505091418 | 45 | 354 | 1.0 | 1.0 | 0.00 | 0.00 | 0.00 | 55 | 1036.8 |
| 20260505090916 | 45 | 18 | 1.0 | 1.0 | 0.00 | 0.00 | 0.00 | 55 | 1036.7 |
| 20260505090414 | 45 | 11 | 0.0 | 0.0 | 0.00 | 0.00 | 0.00 | 54 | 1036.7 |
| 20260505085911 | 46 | 10 | 0.0 | 1.0 | 0.00 | 0.00 | 0.00 | 53 | 1036.7 |
| 20260505085409 | 46 | 354 | 0.0 | 2.0 | 0.00 | 0.00 | 0.00 | 51 | 1037.0 |
| 20260505084907 | 46 | 352 | 1.0 | 5.0 | 0.00 | 0.00 | 0.00 | 51 | 1037.1 |
| 20260505084405 | 46 | 335 | 1.0 | 3.0 | 0.00 | 0.00 | 0.00 | 52 | 1036.9 |
| 20260505083902 | 46 | 354 | 2.0 | 3.0 | 0.00 | 0.00 | 0.00 | 52 | 1036.7 |
| 20260505083400 | 46 | 337 | 1.0 | 2.0 | 0.00 | 0.00 | 0.00 | 53 | 1036.2 |
| 20260505082855 | 46 | 357 | 1.0 | 1.0 | 0.00 | 0.00 | 0.00 | 56 | 1035.9 |
| 20260505082351 | 46 | 354 | 2.0 | 2.0 | 0.00 | 0.00 | 0.00 | 55 | 1035.9 |
| 20260505081849 | 46 | 22 | 0.0 | 1.0 | 0.00 | 0.00 | 0.00 | 54 | 1035.6 |
| 20260505081345 | 46 | 20 | 0.0 | 1.0 | 0.00 | 0.00 | 0.00 | 53 | 1035.5 |
| 20260505080842 | 47 | 14 | 1.0 | 2.0 | 0.00 | 0.00 | 0.00 | 52 | 1035.6 |
| 20260505080338 | 47 | 296 | 1.0 | 2.0 | 0.00 | 0.00 | 0.00 | 52 | 1035.4 |
| 20260505075833 | 47 | 35 | 1.0 | 2.0 | 0.00 | 0.00 | 0.00 | 52 | 1035.4 |
| 20260505075331 | 48 | 14 | 2.0 | 2.0 | 0.00 | 0.00 | 0.00 | 52 | 1035.4 |
| 20260505074828 | 47 | 72 | 1.0 | 3.0 | 0.00 | 0.00 | 0.00 | 52 | 1035.1 |
| 20260505074325 | 47 | 20 | 0.0 | 1.0 | 0.00 | 0.00 | 0.00 | 53 | 1035.3 |
| 20260505073822 | 48 | 53 | 2.0 | 2.0 | 0.00 | 0.00 | 0.00 | 52 | 1035.1 |
| 20260505073320 | 48 | 37 | 2.0 | 5.0 | 0.00 | 0.00 | 0.00 | 52 | 1034.8 |
| 20260505072817 | 48 | 9 | 3.0 | 5.0 | 0.00 | 0.00 | 0.00 | 52 | 1034.6 |
| 20260505072313 | 48 | 45 | 1.0 | 3.0 | 0.00 | 0.00 | 0.00 | 52 | 1034.4 |
| 20260505071809 | 48 | 26 | 1.0 | 3.0 | 0.00 | 0.00 | 0.00 | 53 | 1034.3 |
| 20260505071306 | 48 | 30 | 1.0 | 3.0 | 0.00 | 0.00 | 0.00 | 54 | 1034.2 |
| 20260505070804 | 48 | 23 | 1.0 | 2.0 | 0.00 | 0.00 | 0.00 | 55 | 1034.5 |
| 20260505070300 | 48 | 16 | 1.0 | 2.0 | 0.00 | 0.00 | 0.00 | 54 | 1034.3 |
| 20260505065755 | 49 | 18 | 1.0 | 2.0 | 0.00 | 0.00 | 0.00 | 54 | 1034.4 |
| 20260505065252 | 49 | 5 | 0.0 | 2.0 | 0.00 | 0.00 | 0.00 | 54 | 1034.5 |
| 20260505064749 | 49 | 49 | 3.0 | 5.0 | 0.00 | 0.00 | 0.00 | 53 | 1034.3 |
| 20260505064247 | 50 | 26 | 1.0 | 3.0 | 0.00 | 0.00 | 0.00 | 53 | 1034.1 |
| 20260505063744 | 50 | 300 | 3.0 | 3.0 | 0.00 | 0.00 | 0.00 | 54 | 1033.9 |
| 20260505063240 | 50 | 305 | 2.0 | 3.0 | 0.00 | 0.00 | 0.00 | 55 | 1033.8 |
| 20260505062737 | 50 | 25 | 1.0 | 3.0 | 0.00 | 0.00 | 0.00 | 54 | 1033.8 |
| 20260505062234 | 50 | 325 | 2.0 | 5.0 | 0.00 | 0.00 | 0.00 | 55 | 1033.8 |
| 20260505061731 | 51 | 280 | 1.0 | 3.0 | 0.00 | 0.00 | 0.00 | 53 | 1033.8 |
| 20260505061229 | 51 | 30 | 3.0 | 3.0 | 0.00 | 0.00 | 0.00 | 54 | 1033.8 |
| 20260505060726 | 51 | 267 | 4.0 | 6.0 | 0.00 | 0.00 | 0.00 | 53 | 1033.5 |
| 20260505060224 | 52 | 23 | 4.0 | 5.0 | 0.00 | 0.00 | 0.00 | 52 | 1033.4 |
| 20260505055718 | 51 | 40 | 2.0 | 3.0 | 0.00 | 0.00 | 0.00 | 54 | 1033.6 |
| 20260505055215 | 51 | 39 | 1.0 | 2.0 | 0.00 | 0.00 | 0.00 | 54 | 1033.5 |
| 20260505054713 | 52 | 18 | 1.0 | 5.0 | 0.00 | 0.00 | 0.00 | 53 | 1033.4 |
| 20260505054210 | 52 | 38 | 1.0 | 5.0 | 0.00 | 0.00 | 0.00 | 52 | 1033.5 |
| 20260505053708 | 52 | 349 | 0.0 | 5.0 | 0.00 | 0.00 | 0.00 | 52 | 1033.2 |
| 20260505053204 | 53 | 18 | 0.0 | 2.0 | 0.00 | 0.00 | 0.00 | 52 | 1033.2 |
| 20260505052702 | 53 | 348 | 1.0 | 5.0 | 0.00 | 0.00 | 0.00 | 51 | 1033.1 |
| 20260505052158 | 53 | 6 | 1.0 | 3.0 | 0.00 | 0.00 | 0.00 | 50 | 1033.1 |
| 20260505051656 | 53 | 341 | 1.0 | 6.0 | 0.00 | 0.00 | 0.00 | 50 | 1033.1 |
| 20260505051154 | 53 | 242 | 1.0 | 6.0 | 0.00 | 0.00 | 0.00 | 51 | 1033.3 |
| 20260505050651 | 53 | 358 | 1.0 | 3.0 | 0.00 | 0.00 | 0.00 | 52 | 1032.9 |
| 20260505050149 | 54 | 16 | 0.0 | 3.0 | 0.00 | 0.00 | 0.00 | 50 | 1032.9 |
| 20260505041619 | 55 | 339 | 2.0 | 6.0 | 0.00 | 0.00 | 0.00 | 47 | 1032.1 |
| 20260505041116 | 56 | 290 | 3.0 | 6.0 | 0.00 | 0.00 | 0.00 | 46 | 1032.3 |
| 20260505040613 | 56 | 356 | 1.0 | 5.0 | 0.00 | 0.00 | 0.00 | 46 | 1032.1 |
| 20260505040110 | 56 | 12 | 1.0 | 5.0 | 0.00 | 0.00 | 0.00 | 44 | 1032.0 |
| 20260505035607 | 56 | 342 | 2.0 | 2.0 | 0.00 | 0.00 | 0.00 | 44 | 1032.1 |
| 20260505035103 | 56 | 293 | 2.0 | 3.0 | 0.00 | 0.00 | 0.00 | 44 | 1032.1 |
| 20260505034600 | 57 | 318 | 1.0 | 2.0 | 0.00 | 0.00 | 0.00 | 44 | 1031.9 |
| 20260505034056 | 56 | 338 | 1.0 | 5.0 | 0.00 | 0.00 | 0.00 | 43 | 1032.1 |
| 20260505033553 | 56 | 317 | 1.0 | 2.0 | 0.00 | 0.00 | 0.00 | 44 | 1032.0 |
| 20260505033052 | 56 | 1 | 0.0 | 3.0 | 0.00 | 0.00 | 0.00 | 43 | 1031.9 |
| 20260505032549 | 57 | 4 | 1.0 | 3.0 | 0.00 | 0.00 | 0.00 | 43 | 1031.9 |
| 20260505032045 | 57 | 7 | 0.0 | 1.0 | 0.00 | 0.00 | 0.00 | 44 | 1031.9 |
| 20260505031543 | 57 | 355 | 1.0 | 2.0 | 0.00 | 0.00 | 0.00 | 41 | 1032.0 |
| 20260505031039 | 58 | 341 | 1.0 | 2.0 | 0.00 | 0.00 | 0.00 | 41 | 1031.8 |
| 20260505030536 | 58 | 342 | 1.0 | 3.0 | 0.00 | 0.00 | 0.00 | 40 | 1031.6 |
| 20260505030032 | 58 | 352 | 1.0 | 2.0 | 0.00 | 0.00 | 0.00 | 39 | 1031.4 |
| 20260505025528 | 58 | 336 | 3.0 | 3.0 | 0.00 | 0.00 | 0.00 | 39 | 1031.7 |
| 20260505025027 | 58 | 315 | 3.0 | 5.0 | 0.00 | 0.00 | 0.00 | 39 | 1031.6 |
| 20260505024524 | 58 | 301 | 1.0 | 2.0 | 0.00 | 0.00 | 0.00 | 39 | 1031.3 |
| 20260505024021 | 58 | 349 | 3.0 | 3.0 | 0.00 | 0.00 | 0.00 | 40 | 1031.2 |
| 20260505023518 | 58 | 2 | 0.0 | 3.0 | 0.00 | 0.00 | 0.00 | 39 | 1031.3 |
| 20260505023016 | 59 | 321 | 3.0 | 5.0 | 0.00 | 0.00 | 0.00 | 38 | 1031.2 |
| 20260505022513 | 59 | 332 | 1.0 | 2.0 | 0.00 | 0.00 | 0.00 | 39 | 1030.8 |
| 20260505022010 | 59 | 316 | 1.0 | 5.0 | 0.00 | 0.00 | 0.00 | 37 | 1030.6 |
| 20260505021506 | 60 | 333 | 1.0 | 3.0 | 0.00 | 0.00 | 0.00 | 36 | 1030.4 |
| 20260505021003 | 60 | 302 | 4.0 | 8.0 | 0.00 | 0.00 | 0.00 | 36 | 1030.2 |
| 20260505020458 | 60 | 342 | 1.0 | 6.0 | 0.00 | 0.00 | 0.00 | 36 | 1029.8 |
| 20260505015954 | 60 | 332 | 1.0 | 6.0 | 0.00 | 0.00 | 0.00 | 37 | 1029.8 |
| 20260505015452 | 60 | 324 | 2.0 | 5.0 | 0.00 | 0.00 | 0.00 | 37 | 1029.7 |
| 20260505014949 | 60 | 284 | 2.0 | 3.0 | 0.00 | 0.00 | 0.00 | 38 | 1029.8 |
| 20260505014446 | 60 | 322 | 2.0 | 6.0 | 0.00 | 0.00 | 0.00 | 38 | 1029.6 |
| 20260505013943 | 61 | 2 | 1.0 | 3.0 | 0.00 | 0.00 | 0.00 | 39 | 1029.7 |
| 20260505013440 | 62 | 309 | 2.0 | 5.0 | 0.00 | 0.00 | 0.00 | 38 | 1029.5 |
| 20260505012937 | 62 | 280 | 2.0 | 6.0 | 0.00 | 0.00 | 0.00 | 37 | 1029.4 |
| 20260505012435 | 62 | 277 | 3.0 | 5.0 | 0.00 | 0.00 | 0.00 | 38 | 1029.7 |
| 20260505011932 | 63 | 289 | 4.0 | 8.0 | 0.00 | 0.00 | 0.00 | 38 | 1029.6 |
| 20260505011428 | 63 | 356 | 2.0 | 8.0 | 0.00 | 0.00 | 0.00 | 38 | 1029.4 |
| 20260505010925 | 63 | 356 | 4.0 | 8.0 | 0.00 | 0.00 | 0.00 | 38 | 1029.1 |
| 20260505010420 | 63 | 45 | 5.0 | 11.0 | 0.00 | 0.00 | 0.00 | 38 | 1029.4 |
| 20260505005916 | 64 | 279 | 2.0 | 8.0 | 0.00 | 0.00 | 0.00 | 38 | 1029.1 |
| 20260505005414 | 64 | 346 | 2.0 | 2.0 | 0.00 | 0.00 | 0.00 | 38 | 1028.8 |
| 20260505004911 | 65 | 269 | 4.0 | 8.0 | 0.00 | 0.00 | 0.00 | 36 | 1028.6 |
| 20260505004408 | 66 | 3 | 1.0 | 8.0 | 0.00 | 0.00 | 0.00 | 37 | 1028.2 |
| 20260505003905 | 66 | 283 | 3.0 | 13.0 | 0.00 | 0.00 | 0.00 | 36 | 1028.0 |
| 20260505003402 | 67 | 243 | 3.0 | 8.0 | 0.00 | 0.00 | 0.00 | 36 | 1027.8 |
| 20260505002858 | 67 | 48 | 2.0 | 13.0 | 0.00 | 0.00 | 0.00 | 36 | 1027.7 |
| 20260505002354 | 68 | 309 | 5.0 | 8.0 | 0.00 | 0.00 | 0.00 | 35 | 1027.7 |
| 20260505001853 | 69 | 17 | 4.0 | 7.0 | 0.00 | 0.00 | 0.00 | 36 | 1027.5 |
| 20260505001349 | 69 | 14 | 2.0 | 6.0 | 0.00 | 0.00 | 0.00 | 35 | 1027.5 |
| 20260505000847 | 70 | 308 | 6.0 | 16.0 | 0.00 | 0.00 | 0.00 | 33 | 1027.5 |
| 20260505000345 | 70 | 288 | 6.0 | 14.0 | 0.00 | 0.00 | 0.00 | 33 | 1027.5 |
| 20260504235841 | 71 | 282 | 5.0 | 7.0 | 0.00 | 0.00 | 0.00 | 34 | 1027.2 |
| 20260504235338 | 71 | 357 | 4.0 | 13.0 | 0.00 | 0.00 | 0.00 | 35 | 1027.3 |
| 20260504234835 | 71 | 337 | 5.0 | 17.0 | 0.00 | 0.00 | 0.00 | 34 | 1027.4 |
| 20260504234332 | 72 | 297 | 6.0 | 10.0 | 0.00 | 0.00 | 0.00 | 34 | 1027.2 |
| 20260504233829 | 72 | 332 | 2.0 | 8.0 | 0.00 | 0.00 | 0.00 | 37 | 1026.9 |
| 20260504233324 | 73 | 357 | 5.0 | 10.0 | 0.00 | 0.00 | 0.00 | 37 | 1027.1 |
| 20260504232821 | 73 | 235 | 5.0 | 8.0 | 0.00 | 0.00 | 0.00 | 37 | 1027.1 |
| 20260504232319 | 74 | 275 | 3.0 | 6.0 | 0.00 | 0.00 | 0.00 | 38 | 1027.0 |
| 20260504231815 | 75 | 254 | 5.0 | 10.0 | 0.00 | 0.00 | 0.00 | 37 | 1026.5 |
| 20260504231312 | 76 | 346 | 3.0 | 7.0 | 0.00 | 0.00 | 0.00 | 37 | 1026.5 |
| 20260504230808 | 76 | 293 | 4.0 | 6.0 | 0.00 | 0.00 | 0.00 | 37 | 1026.3 |
| 20260504230306 | 76 | 292 | 4.0 | 8.0 | 0.00 | 0.00 | 0.00 | 37 | 1026.5 |
| 20260504225805 | 76 | 7 | 1.0 | 9.0 | 0.00 | 0.00 | 0.00 | 38 | 1026.3 |
| 20260504225301 | 77 | 13 | 2.0 | 8.0 | 0.00 | 0.00 | 0.00 | 37 | 1026.4 |
| 20260504224758 | 77 | 306 | 2.0 | 8.0 | 0.00 | 0.00 | 0.00 | 38 | 1026.5 |
| 20260504224255 | 77 | 325 | 4.0 | 7.0 | 0.00 | 0.00 | 0.00 | 38 | 1026.1 |
| 20260504223751 | 78 | 263 | 6.0 | 14.0 | 0.00 | 0.00 | 0.00 | 38 | 1026.5 |
| 20260504223247 | 78 | 302 | 2.0 | 7.0 | 0.00 | 0.00 | 0.00 | 37 | 1026.2 |
| 20260504222744 | 78 | 269 | 3.0 | 7.0 | 0.00 | 0.00 | 0.00 | 35 | 1026.0 |
| 20260504222241 | 77 | 217 | 3.0 | 15.0 | 0.00 | 0.00 | 0.00 | 38 | 1026.0 |
| 20260504221739 | 77 | 191 | 7.0 | 11.0 | 0.00 | 0.00 | 0.00 | 39 | 1026.1 |
| 20260504221236 | 78 | 266 | 3.0 | 8.0 | 0.00 | 0.00 | 0.00 | 37 | 1026.1 |
| 20260504220732 | 77 | 355 | 1.0 | 3.0 | 0.00 | 0.00 | 0.00 | 36 | 1026.0 |
| 20260504220229 | 77 | 8 | 2.0 | 5.0 | 0.00 | 0.00 | 0.00 | 36 | 1026.0 |
| 20260504215727 | 78 | 299 | 5.0 | 6.0 | 0.00 | 0.00 | 0.00 | 34 | 1026.1 |
| 20260504215223 | 78 | 213 | 3.0 | 6.0 | 0.00 | 0.00 | 0.00 | 37 | 1026.0 |
| 20260504214719 | 77 | 265 | 2.0 | 7.0 | 0.00 | 0.00 | 0.00 | 36 | 1026.1 |
| 20260504214215 | 76 | 352 | 3.0 | 6.0 | 0.00 | 0.00 | 0.00 | 34 | 1026.3 |
| 20260504213712 | 77 | 196 | 3.0 | 6.0 | 0.00 | 0.00 | 0.00 | 34 | 1026.2 |
| 20260504213209 | 77 | 303 | 4.0 | 11.0 | 0.00 | 0.00 | 0.00 | 35 | 1026.2 |
| 20260504212706 | 76 | 188 | 2.0 | 5.0 | 0.00 | 0.00 | 0.00 | 35 | 1026.2 |
| 20260504212202 | 76 | 168 | 4.0 | 10.0 | 0.00 | 0.00 | 0.00 | 36 | 1026.2 |
| 20260504211700 | 76 | 197 | 5.0 | 8.0 | 0.00 | 0.00 | 0.00 | 36 | 1026.2 |
| 20260504211156 | 77 | 251 | 9.0 | 13.0 | 0.00 | 0.00 | 0.00 | 35 | 1026.3 |
| 20260504210654 | 78 | 194 | 3.0 | 7.0 | 0.00 | 0.00 | 0.00 | 35 | 1026.3 |
| 20260504210150 | 78 | 217 | 3.0 | 9.0 | 0.00 | 0.00 | 0.00 | 35 | 1026.2 |
| 20260504205647 | 78 | 259 | 8.0 | 15.0 | 0.00 | 0.00 | 0.00 | 36 | 1026.4 |
| 20260504205144 | 79 | 183 | 10.0 | 11.0 | 0.00 | 0.00 | 0.00 | 39 | 1026.5 |
| 20260504204643 | 77 | 204 | 7.0 | 14.0 | 0.00 | 0.00 | 0.00 | 36 | 1026.6 |
| 20260504204142 | 77 | 168 | 9.0 | 13.0 | 0.00 | 0.00 | 0.00 | 38 | 1026.5 |
| 20260504203640 | 77 | 179 | 12.0 | 15.0 | 0.00 | 0.00 | 0.00 | 37 | 1026.6 |
| 20260504203137 | 78 | 239 | 7.0 | 18.0 | 0.00 | 0.00 | 0.00 | 37 | 1026.5 |
| 20260504202637 | 78 | 300 | 2.0 | 10.0 | 0.00 | 0.00 | 0.00 | 37 | 1026.6 |
| 20260504202134 | 76 | 206 | 9.0 | 13.0 | 0.00 | 0.00 | 0.00 | 40 | 1026.7 |
| 20260504201631 | 77 | 195 | 11.0 | 18.0 | 0.00 | 0.00 | 0.00 | 38 | 1026.8 |
| 20260504201129 | 78 | 209 | 9.0 | 17.0 | 0.00 | 0.00 | 0.00 | 37 | 1026.7 |
| 20260504200626 | 76 | 190 | 7.0 | 14.0 | 0.00 | 0.00 | 0.00 | 41 | 1027.1 |
| 20260504200123 | 76 | 186 | 6.0 | 10.0 | 0.00 | 0.00 | 0.00 | 39 | 1027.0 |
| 20260504195618 | 77 | 184 | 7.0 | 10.0 | 0.00 | 0.00 | 0.00 | 39 | 1027.0 |
| 20260504195115 | 78 | 196 | 9.0 | 16.0 | 0.00 | 0.00 | 0.00 | 39 | 1027.0 |
| 20260504194612 | 78 | 136 | 12.0 | 18.0 | 0.00 | 0.00 | 0.00 | 37 | 1027.0 |
| 20260504194107 | 78 | 183 | 7.0 | 11.0 | 0.00 | 0.00 | 0.00 | 37 | 1027.1 |
| 20260504193604 | 78 | 209 | 8.0 | 14.0 | 0.00 | 0.00 | 0.00 | 39 | 1027.1 |
| 20260504193103 | 79 | 203 | 13.0 | 20.0 | 0.00 | 0.00 | 0.00 | 38 | 1027.1 |
| 20260504192600 | 78 | 277 | 4.0 | 6.0 | 0.00 | 0.00 | 0.00 | 35 | 1027.2 |
| 20260504192058 | 78 | 184 | 17.0 | 21.0 | 0.00 | 0.00 | 0.00 | 37 | 1027.4 |
| 20260504191556 | 78 | 182 | 10.0 | 16.0 | 0.00 | 0.00 | 0.00 | 39 | 1027.2 |
| 20260504191052 | 78 | 191 | 10.0 | 11.0 | 0.00 | 0.00 | 0.00 | 38 | 1027.3 |
| 20260504190548 | 78 | 176 | 6.0 | 13.0 | 0.00 | 0.00 | 0.00 | 37 | 1027.6 |
| 20260504190044 | 78 | 304 | 4.0 | 7.0 | 0.00 | 0.00 | 0.00 | 34 | 1027.5 |
| 20260504185542 | 77 | 176 | 5.0 | 14.0 | 0.00 | 0.00 | 0.00 | 37 | 1027.6 |
| 20260504185038 | 78 | 184 | 11.0 | 15.0 | 0.00 | 0.00 | 0.00 | 40 | 1027.6 |
| 20260504184534 | 78 | 312 | 3.0 | 13.0 | 0.00 | 0.00 | 0.00 | 37 | 1027.7 |
| 20260504184029 | 77 | 188 | 5.0 | 9.0 | 0.00 | 0.00 | 0.00 | 36 | 1027.7 |
| 20260504183527 | 76 | 213 | 9.0 | 16.0 | 0.00 | 0.00 | 0.00 | 40 | 1027.6 |
| 20260504183025 | 76 | 172 | 12.0 | 17.0 | 0.00 | 0.00 | 0.00 | 40 | 1027.9 |
| 20260504182521 | 77 | 214 | 14.0 | 17.0 | 0.00 | 0.00 | 0.00 | 35 | 1027.7 |
| 20260504182019 | 77 | 186 | 9.0 | 13.0 | 0.00 | 0.00 | 0.00 | 40 | 1027.8 |
| 20260504181515 | 76 | 147 | 9.0 | 16.0 | 0.00 | 0.00 | 0.00 | 41 | 1027.8 |
| 20260504181014 | 76 | 4 | 4.0 | 9.0 | 0.00 | 0.00 | 0.00 | 35 | 1027.8 |
| 20260504180513 | 76 | 195 | 9.0 | 17.0 | 0.00 | 0.00 | 0.00 | 39 | 1027.8 |
| 20260504180011 | 77 | 198 | 11.0 | 17.0 | 0.00 | 0.00 | 0.00 | 38 | 1027.7 |
| 20260504175508 | 75 | 170 | 10.0 | 14.0 | 0.00 | 0.00 | 0.00 | 40 | 1027.9 |
| 20260504175005 | 75 | 170 | 12.0 | 17.0 | 0.00 | 0.00 | 0.00 | 38 | 1027.6 |
| 20260504174503 | 76 | 202 | 5.0 | 14.0 | 0.00 | 0.00 | 0.00 | 39 | 1027.9 |
| 20260504173959 | 75 | 158 | 9.0 | 11.0 | 0.00 | 0.00 | 0.00 | 40 | 1027.9 |
| 20260504173456 | 75 | 177 | 12.0 | 17.0 | 0.00 | 0.00 | 0.00 | 41 | 1028.0 |